Time;durP1;ratioP1;P1;durP2;ratioP2;P2;SDS_P1;SDS_P2;PMS_P1;PMS_P2;Temp;Humidity;BMP_temperature;BMP_pressure;BME280_temperature;BME280_humidity;BME280_pressure;Samples;Min_cycle;Max_cycle;Signal;HPM_P1;HPM_P2
2023/09/14 00:01:16;;;;;;;0.30;0.30;;;;;;;41.23;nan;100233.25;7395693;19;20016;-56
2023/09/14 00:03:42;;;;;;;1.38;0.10;;;;;;;41.22;nan;100232.50;7395246;19;20036;-56
2023/09/14 00:06:08;;;;;;;2.08;0.60;;;;;;;41.45;nan;100231.78;7397390;19;20381;-56
2023/09/14 00:08:35;;;;;;;0.20;0.20;;;;;;;41.26;nan;100231.94;7397467;19;20017;-56
2023/09/14 00:11:03;;;;;;;2.05;0.60;;;;;;;41.01;nan;100229.66;7395160;19;20476;-56
2023/09/14 00:13:30;;;;;;;2.10;0.63;;;;;;;40.84;nan;100225.50;7395129;19;20018;-56
2023/09/14 00:15:56;;;;;;;0.65;0.43;;;;;;;40.22;nan;100217.56;7398936;19;20392;-56
2023/09/14 00:18:22;;;;;;;0.50;0.47;;;;;;;38.78;nan;100225.25;7395036;19;20022;-56
2023/09/14 00:20:52;;;;;;;1.58;0.47;;;;;;;40.00;nan;100218.28;7394115;19;20022;-56
2023/09/14 00:23:20;;;;;;;0.20;0.10;;;;;;;40.28;nan;100218.53;7395139;19;20372;-56
2023/09/14 00:25:46;;;;;;;0.30;0.10;;;;;;;40.19;nan;100224.75;7398028;19;20044;-56
2023/09/14 00:28:13;;;;;;;2.67;0.75;;;;;;;40.08;nan;100215.66;7395464;19;20033;-56
2023/09/14 00:30:39;;;;;;;0.70;0.20;;;;;;;40.08;nan;100209.81;7392919;19;20018;-56
2023/09/14 00:33:05;;;;;;;0.75;0.25;;;;;;;39.83;nan;100213.28;7393128;19;20090;-56
2023/09/14 00:35:31;;;;;;;0.40;0.35;;;;;;;39.81;nan;100206.66;7393566;19;20018;-56
2023/09/14 00:37:57;;;;;;;0.55;0.30;;;;;;;39.68;nan;100207.63;7395901;19;20035;-56
2023/09/14 00:40:24;;;;;;;0.10;0.00;;;;;;;39.19;nan;100213.78;7394780;19;20018;-56
2023/09/14 00:42:53;;;;;;;0.10;0.10;;;;;;;39.36;nan;100213.75;7395360;19;20044;-56
2023/09/14 00:45:21;;;;;;;5.13;1.15;;;;;;;37.39;nan;100210.50;7395971;19;20339;-56
2023/09/14 00:47:50;;;;;;;3.45;0.55;;;;;;;39.18;nan;100206.50;7395130;19;20007;-56
2023/09/14 00:50:17;;;;;;;0.70;0.40;;;;;;;33.77;nan;100215.72;7392797;19;20023;-56
2023/09/14 00:53:11;;;;;;;0.30;0.30;;;;;;;38.46;nan;100204.31;7394328;19;20575;-56
2023/09/14 00:55:37;;;;;;;0.38;0.20;;;;;;;37.99;nan;100216.09;7396613;19;20006;-56
2023/09/14 00:58:04;;;;;;;0.93;0.22;;;;;;;37.48;nan;100207.31;7393303;19;20029;-56
2023/09/14 01:00:31;;;;;;;0.57;0.57;;;;;;;38.16;nan;100220.47;7391774;19;20031;-57
2023/09/14 01:02:58;;;;;;;8.88;0.35;;;;;;;39.02;nan;100214.56;7393732;19;20014;-58
2023/09/14 01:05:30;;;;;;;0.73;0.38;;;;;;;39.07;nan;100204.56;7392584;19;20011;-57
2023/09/14 01:07:57;;;;;;;0.55;0.13;;;;;;;39.16;nan;100200.56;7394949;19;20475;-57
2023/09/14 01:10:23;;;;;;;0.85;0.10;;;;;;;39.00;nan;100194.09;7393601;19;20007;-57
2023/09/14 01:12:49;;;;;;;0.30;0.20;;;;;;;38.92;nan;100199.63;7393686;19;20022;-57
2023/09/14 01:15:21;;;;;;;0.50;0.20;;;;;;;39.35;nan;100205.66;7390778;19;20018;-56
2023/09/14 01:18:19;;;;;;;2.90;0.93;;;;;;;39.70;nan;100202.59;7391869;19;20014;-56
2023/09/14 01:21:35;;;;;;;4.30;0.43;;;;;;;39.86;nan;100203.19;7391980;19;20018;-57
2023/09/14 01:24:16;;;;;;;2.53;0.65;;;;;;;39.93;nan;100199.06;7393249;19;20100;-57
2023/09/14 01:26:42;;;;;;;0.22;0.10;;;;;;;39.66;nan;100202.47;7393478;19;20018;-57
2023/09/14 01:29:08;;;;;;;0.10;0.00;;;;;;;39.60;nan;100201.50;7394262;19;20076;-56
2023/09/14 01:31:35;;;;;;;0.63;0.30;;;;;;;39.51;nan;100202.59;7398566;19;20014;-56
2023/09/14 01:34:02;;;;;;;0.52;0.30;;;;;;;39.45;nan;100197.28;7399741;19;20076;-56
2023/09/14 01:36:46;;;;;;;1.17;0.30;;;;;;;39.50;nan;100192.34;7405068;19;20035;-57
2023/09/14 01:39:13;;;;;;;2.95;1.08;;;;;;;39.61;nan;100194.25;7402904;19;20014;-56
2023/09/14 01:41:40;;;;;;;1.85;0.40;;;;;;;39.49;nan;100191.59;7399642;19;20014;-56
2023/09/14 01:44:07;;;;;;;0.10;0.00;;;;;;;28.43;nan;100206.16;7399486;19;20011;-56
2023/09/14 01:46:33;;;;;;;0.63;0.43;;;;;;;32.23;nan;100198.63;7397598;19;20030;-56
2023/09/14 01:49:00;;;;;;;3.92;1.08;;;;;;;37.77;nan;100186.78;7401190;19;20011;-56
2023/09/14 01:51:26;;;;;;;0.40;0.30;;;;;;;38.80;nan;100175.81;7402937;19;20379;-56
2023/09/14 01:53:52;;;;;;;0.10;0.00;;;;;;;39.21;nan;100181.81;7397921;19;20017;-56
2023/09/14 01:56:18;;;;;;;0.43;0.30;;;;;;;39.43;nan;100182.63;7398886;19;20359;-56
2023/09/14 01:58:44;;;;;;;1.25;1.02;;;;;;;39.47;nan;100182.03;7398113;19;20010;-56
2023/09/14 02:01:11;;;;;;;3.08;0.88;;;;;;;39.53;nan;100176.44;7397017;19;20007;-56
2023/09/14 02:03:37;;;;;;;0.20;0.20;;;;;;;39.48;nan;100178.47;7402114;19;20014;-55
2023/09/14 02:06:03;;;;;;;0.52;0.38;;;;;;;39.48;nan;100172.63;7400280;19;20045;-55
2023/09/14 02:08:30;;;;;;;1.48;0.60;;;;;;;39.59;nan;100168.69;7400900;19;20011;-55
2023/09/14 02:10:57;;;;;;;0.43;0.20;;;;;;;39.76;nan;100167.06;7398614;19;20010;-55
2023/09/14 02:13:23;;;;;;;2.15;0.77;;;;;;;39.72;nan;100170.59;7397747;19;20011;-55
2023/09/14 02:15:50;;;;;;;0.47;0.47;;;;;;;39.65;nan;100174.72;7401355;19;20011;-55
2023/09/14 02:18:16;;;;;;;1.05;0.22;;;;;;;39.65;nan;100174.72;7399007;19;20014;-55
2023/09/14 02:20:43;;;;;;;0.75;0.20;;;;;;;39.87;nan;100166.72;7397964;19;20348;-55
2023/09/14 02:23:09;;;;;;;0.10;0.00;;;;;;;39.93;nan;100164.03;7398984;19;20359;-55
2023/09/14 02:25:36;;;;;;;0.32;0.32;;;;;;;39.93;nan;100164.03;7397817;19;20014;-55
2023/09/14 02:28:03;;;;;;;0.95;0.20;;;;;;;39.63;nan;100157.16;7403589;19;20086;-55
2023/09/14 02:30:29;;;;;;;2.47;0.70;;;;;;;39.50;nan;100163.94;7396625;19;20010;-55
2023/09/14 02:32:55;;;;;;;0.25;0.20;;;;;;;39.03;nan;100160.72;7397027;19;20018;-55
2023/09/14 02:35:21;;;;;;;0.20;0.10;;;;;;;38.85;nan;100162.94;7396206;19;20011;-56
2023/09/14 02:37:47;;;;;;;0.20;0.03;;;;;;;39.26;nan;100158.00;7402001;19;20046;-57
2023/09/14 02:40:14;;;;;;;0.20;0.10;;;;;;;39.15;nan;100175.75;7399188;19;20014;-57
2023/09/14 02:42:40;;;;;;;0.73;0.20;;;;;;;39.28;nan;100166.06;7396623;19;20015;-57
2023/09/14 02:45:06;;;;;;;0.28;0.20;;;;;;;39.09;nan;100166.78;7396890;19;20014;-57
2023/09/14 02:47:33;;;;;;;0.90;0.65;;;;;;;36.96;nan;100164.94;7401138;19;20353;-57
2023/09/14 02:49:59;;;;;;;1.33;0.65;;;;;;;35.47;nan;100169.03;7398038;19;20042;-57
2023/09/14 02:52:25;;;;;;;0.30;0.30;;;;;;;34.19;nan;100163.34;7398680;19;20011;-57
2023/09/14 02:54:51;;;;;;;1.25;0.38;;;;;;;34.17;nan;100171.16;7395252;19;20021;-57
2023/09/14 02:57:17;;;;;;;1.30;0.50;;;;;;;33.64;nan;100164.34;7400142;19;20344;-58
2023/09/14 02:59:43;;;;;;;0.30;0.17;;;;;;;33.26;nan;100157.00;7397888;19;20039;-58
2023/09/14 03:02:10;;;;;;;1.38;0.40;;;;;;;33.20;nan;100164.53;7396142;19;20316;-57
2023/09/14 03:04:37;;;;;;;0.20;0.20;;;;;;;32.70;nan;100159.91;7396581;19;20042;-58
2023/09/14 03:07:03;;;;;;;2.28;1.05;;;;;;;31.58;nan;100163.94;7398601;19;20339;-58
2023/09/14 03:09:29;;;;;;;0.98;0.40;;;;;;;31.58;nan;100158.91;7399759;19;20030;-58
2023/09/14 03:11:56;;;;;;;9.27;0.50;;;;;;;31.27;nan;100158.16;7396183;19;20014;-58
2023/09/14 03:14:22;;;;;;;0.10;0.10;;;;;;;31.23;nan;100152.88;7394426;19;20014;-58
2023/09/14 03:16:49;;;;;;;0.57;0.22;;;;;;;31.54;nan;100152.88;7396376;19;20468;-59
2023/09/14 03:19:16;;;;;;;0.10;0.10;;;;;;;31.35;nan;100150.84;7394903;19;20408;-59
2023/09/14 03:21:42;;;;;;;0.90;0.45;;;;;;;32.22;nan;100151.00;7395552;19;20006;-59
2023/09/14 03:24:08;;;;;;;0.10;0.10;;;;;;;31.50;nan;100141.09;7396252;19;20018;-59
2023/09/14 03:26:34;;;;;;;1.17;0.20;;;;;;;31.65;nan;100142.78;7396734;19;20010;-60
2023/09/14 03:29:01;;;;;;;1.33;0.52;;;;;;;32.20;nan;100142.22;7396812;19;20010;-59
2023/09/14 03:31:28;;;;;;;10.60;0.73;;;;;;;32.43;nan;100148.06;7396281;19;20011;-60
2023/09/14 03:33:55;;;;;;;1.15;0.77;;;;;;;33.20;nan;100147.19;7395950;19;20015;-60
2023/09/14 03:36:21;;;;;;;0.73;0.30;;;;;;;32.77;nan;100141.63;7396034;19;20070;-60
2023/09/14 03:38:47;;;;;;;1.17;0.63;;;;;;;32.43;nan;100141.53;7399553;19;20010;-60
2023/09/14 03:41:15;;;;;;;0.25;0.22;;;;;;;32.86;nan;100143.63;7395027;19;20010;-60
2023/09/14 03:43:42;;;;;;;0.65;0.10;;;;;;;33.36;nan;100137.38;7396352;19;20011;-60
2023/09/14 03:46:10;;;;;;;2.75;0.20;;;;;;;33.13;nan;100130.88;7397307;19;20022;-60
2023/09/14 03:48:36;;;;;;;9.60;0.90;;;;;;;32.80;nan;100134.59;7397508;19;20003;-60
2023/09/14 03:51:03;;;;;;;0.10;0.10;;;;;;;33.04;nan;100134.63;7395662;19;20483;-60
2023/09/14 03:53:29;;;;;;;1.08;0.43;;;;;;;32.33;nan;100133.00;7393210;19;20023;-60
2023/09/14 03:55:58;;;;;;;7.03;0.35;;;;;;;33.52;nan;100117.41;7395751;19;20506;-60
2023/09/14 03:58:25;;;;;;;0.68;0.20;;;;;;;33.99;nan;100124.56;7400513;19;20199;-60
2023/09/14 04:00:51;;;;;;;0.85;0.38;;;;;;;34.26;nan;100133.38;7394363;19;20010;-60
2023/09/14 04:03:17;;;;;;;0.20;0.13;;;;;;;34.35;nan;100117.97;7395725;19;20402;-60
2023/09/14 04:05:47;;;;;;;0.28;0.20;;;;;;;34.50;nan;100124.56;7393562;19;20020;-60
2023/09/14 04:08:13;;;;;;;6.80;0.73;;;;;;;34.64;nan;100113.78;7396383;19;20014;-60
2023/09/14 04:10:39;;;;;;;0.50;0.47;;;;;;;34.78;nan;100123.28;7396075;19;20025;-60
2023/09/14 04:13:27;;;;;;;0.10;0.10;;;;;;;34.95;nan;100119.88;7393919;19;20066;-60
2023/09/14 04:15:56;;;;;;;0.30;0.20;;;;;;;34.07;nan;100113.47;7392852;19;20070;-60
2023/09/14 04:18:23;;;;;;;0.43;0.35;;;;;;;33.69;nan;100119.88;7393850;19;20085;-61
2023/09/14 04:20:50;;;;;;;4.85;1.02;;;;;;;33.61;nan;100110.75;7393800;19;20042;-61
2023/09/14 04:23:16;;;;;;;0.47;0.35;;;;;;;32.22;nan;100110.63;7394830;19;20010;-61
2023/09/14 04:25:47;;;;;;;0.52;0.30;;;;;;;31.81;nan;100101.44;7394075;19;20022;-60
2023/09/14 04:28:14;;;;;;;0.85;0.65;;;;;;;31.95;nan;100110.28;7393799;19;20362;-60
2023/09/14 04:30:44;;;;;;;0.38;0.35;;;;;;;32.97;nan;100104.63;7393758;19;20344;-60
2023/09/14 04:33:12;;;;;;;0.27;0.27;;;;;;;32.63;nan;100108.25;7392853;19;20355;-61
2023/09/14 04:35:38;;;;;;;0.45;0.25;;;;;;;31.81;nan;100109.31;7391537;19;20010;-61
2023/09/14 04:38:08;;;;;;;0.15;0.15;;;;;;;31.37;nan;100104.94;7393782;19;20466;-61
2023/09/14 04:40:40;;;;;;;0.27;0.20;;;;;;;32.24;nan;100116.53;7392944;19;20034;-61
2023/09/14 04:43:06;;;;;;;0.30;0.30;;;;;;;32.35;nan;100112.19;7395591;19;20024;-61
2023/09/14 04:45:32;;;;;;;0.10;0.10;;;;;;;31.88;nan;100111.25;7392783;19;20018;-61
2023/09/14 04:47:59;;;;;;;1.25;0.30;;;;;;;32.79;nan;100117.94;7393572;19;20095;-61
2023/09/14 04:50:27;;;;;;;2.67;0.75;;;;;;;33.43;nan;100124.06;7394257;19;20031;-61
2023/09/14 04:52:53;;;;;;;0.22;0.20;;;;;;;33.62;nan;100118.00;7392137;19;20014;-61
2023/09/14 04:55:21;;;;;;;2.20;0.90;;;;;;;33.19;nan;100106.03;7393691;19;20014;-62
2023/09/14 04:57:47;;;;;;;0.35;0.10;;;;;;;33.03;nan;100110.06;7388786;19;20467;-63
2023/09/14 05:00:14;;;;;;;0.65;0.43;;;;;;;33.83;nan;100109.13;7394432;19;20022;-62
2023/09/14 05:02:41;;;;;;;0.20;0.10;;;;;;;34.17;nan;100111.19;7392801;19;20017;-62
2023/09/14 05:05:08;;;;;;;0.30;0.20;;;;;;;33.30;nan;100110.28;7391977;19;20014;-62
2023/09/14 05:07:34;;;;;;;0.52;0.50;;;;;;;33.57;nan;100110.47;7396020;19;20013;-61
2023/09/14 05:10:02;;;;;;;0.82;0.40;;;;;;;33.61;nan;100110.75;7392439;19;20011;-62
2023/09/14 05:12:28;;;;;;;6.80;0.45;;;;;;;34.20;nan;100112.78;7393294;19;20026;-61
2023/09/14 05:14:56;;;;;;;0.77;0.30;;;;;;;34.30;nan;100110.47;7391248;19;20026;-61
2023/09/14 05:17:22;;;;;;;1.48;0.43;;;;;;;34.14;nan;100112.44;7392041;19;20034;-60
2023/09/14 05:19:48;;;;;;;0.55;0.50;;;;;;;34.25;nan;100117.41;7391915;19;20043;-61
2023/09/14 05:22:15;;;;;;;0.32;0.32;;;;;;;34.14;nan;100109.56;7391869;19;20078;-60
2023/09/14 05:24:41;;;;;;;0.40;0.25;;;;;;;34.22;nan;100115.03;7391613;19;20007;-61
2023/09/14 05:27:07;;;;;;;1.33;0.30;;;;;;;34.61;nan;100103.53;7393428;19;20011;-61
2023/09/14 05:29:33;;;;;;;0.75;0.10;;;;;;;34.64;nan;100108.78;7391938;19;20343;-62
2023/09/14 05:32:00;;;;;;;0.30;0.30;;;;;;;34.76;nan;100102.91;7390332;19;20010;-61
2023/09/14 05:34:27;;;;;;;0.30;0.10;;;;;;;35.04;nan;100107.34;7390527;19;20014;-62
2023/09/14 05:36:53;;;;;;;0.45;0.38;;;;;;;35.38;nan;100103.38;7393392;19;20343;-61
2023/09/14 05:39:20;;;;;;;0.52;0.15;;;;;;;35.47;nan;100102.41;7396397;19;20011;-61
2023/09/14 05:41:46;;;;;;;0.65;0.22;;;;;;;35.49;nan;100102.53;7391353;19;20022;-60
2023/09/14 05:44:13;;;;;;;3.25;0.50;;;;;;;35.13;nan;100100.56;7391632;19;20040;-61
2023/09/14 05:46:40;;;;;;;1.13;0.22;;;;;;;34.82;nan;100101.09;7390647;19;20411;-60
2023/09/14 05:49:07;;;;;;;0.10;0.10;;;;;;;35.19;nan;100098.03;7395449;19;20343;-61
2023/09/14 05:51:34;;;;;;;0.52;0.10;;;;;;;34.81;nan;100098.81;7391246;19;20347;-61
2023/09/14 05:54:00;;;;;;;0.45;0.30;;;;;;;34.73;nan;100101.28;7390824;19;20011;-61
2023/09/14 05:56:27;;;;;;;0.57;0.30;;;;;;;34.60;nan;100102.00;7391503;19;20078;-61
2023/09/14 05:58:53;;;;;;;0.52;0.30;;;;;;;34.60;nan;100104.91;7394644;19;20352;-61
2023/09/14 06:01:20;;;;;;;0.32;0.30;;;;;;;34.83;nan;100113.41;7390034;19;20011;-61
2023/09/14 06:03:47;;;;;;;1.55;0.20;;;;;;;35.13;nan;100112.16;7390284;19;20014;-61
2023/09/14 06:06:14;;;;;;;0.57;0.40;;;;;;;35.00;nan;100113.66;7391147;19;20015;-61
2023/09/14 06:08:40;;;;;;;0.50;0.35;;;;;;;34.83;nan;100113.41;7393782;19;20015;-61
2023/09/14 06:11:08;;;;;;;2.15;0.50;;;;;;;34.49;nan;100117.28;7390244;19;20435;-61
2023/09/14 06:13:34;;;;;;;1.00;0.30;;;;;;;34.15;nan;100108.19;7390029;19;20230;-61
2023/09/14 06:16:01;;;;;;;0.88;0.47;;;;;;;33.87;nan;100109.41;7391248;19;20018;-61
2023/09/14 06:18:27;;;;;;;1.20;0.30;;;;;;;33.67;nan;100113.22;7399114;19;20799;-61
2023/09/14 06:20:54;;;;;;;6.18;0.50;;;;;;;33.54;nan;100117.53;7398645;19;20353;-60
2023/09/14 06:23:20;;;;;;;0.40;0.28;;;;;;;33.78;nan;100116.09;7399157;19;20014;-60
2023/09/14 06:25:46;;;;;;;0.20;0.20;;;;;;;33.59;nan;100120.03;7399240;19;20014;-61
2023/09/14 06:28:12;;;;;;;1.00;0.63;;;;;;;33.51;nan;100118.78;7401646;19;20010;-60
2023/09/14 06:30:38;;;;;;;2.60;0.65;;;;;;;33.94;nan;100114.13;7397879;19;20010;-60
2023/09/14 06:33:05;;;;;;;6.53;0.73;;;;;;;33.86;nan;100119.44;7399436;19;20014;-60
2023/09/14 06:35:31;;;;;;;0.65;0.13;;;;;;;33.57;nan;100122.03;7396791;19;20028;-60
2023/09/14 06:37:57;;;;;;;4.07;0.50;;;;;;;33.96;nan;100122.19;7399103;19;20458;-61
2023/09/14 06:40:24;;;;;;;2.00;0.30;;;;;;;33.05;nan;100127.50;7394026;19;20014;-60
2023/09/14 06:42:50;;;;;;;0.52;0.45;;;;;;;33.82;nan;100124.22;7394361;19;20018;-60
2023/09/14 06:45:16;;;;;;;1.00;0.70;;;;;;;34.01;nan;100127.59;7394201;19;20007;-60
2023/09/14 06:47:42;;;;;;;1.70;0.75;;;;;;;33.49;nan;100130.19;7394779;19;20656;-61
2023/09/14 06:50:08;;;;;;;1.38;0.68;;;;;;;34.58;nan;100122.16;7394629;19;20029;-60
2023/09/14 06:52:35;;;;;;;0.30;0.30;;;;;;;34.94;nan;100124.13;7392850;19;20649;-60
2023/09/14 06:55:01;;;;;;;2.15;0.77;;;;;;;35.42;nan;100126.75;7395925;19;20010;-60
2023/09/14 06:57:28;;;;;;;0.85;0.35;;;;;;;35.51;nan;100122.16;7397739;19;20011;-60
2023/09/14 06:59:54;;;;;;;4.03;0.85;;;;;;;35.68;nan;100118.69;7398568;19;20092;-60
2023/09/14 07:02:20;;;;;;;1.55;0.40;;;;;;;36.26;nan;100117.97;7397390;19;20013;-60
2023/09/14 07:04:46;;;;;;;1.40;0.20;;;;;;;36.66;nan;100110.50;7401322;19;20010;-60
2023/09/14 07:07:12;;;;;;;0.55;0.35;;;;;;;36.50;nan;100108.31;7400966;19;20027;-60
2023/09/14 07:09:38;;;;;;;0.17;0.17;;;;;;;36.25;nan;100110.69;7399821;19;20002;-60
2023/09/14 07:12:06;;;;;;;0.93;0.15;;;;;;;35.64;nan;100122.16;7401519;19;20014;-60
2023/09/14 07:14:32;;;;;;;0.30;0.30;;;;;;;34.96;nan;100121.34;7396233;19;20018;-60
2023/09/14 07:16:58;;;;;;;0.45;0.20;;;;;;;35.61;nan;100120.53;7400355;19;20007;-60
2023/09/14 07:19:26;;;;;;;0.35;0.25;;;;;;;35.45;nan;100122.56;7400301;19;20010;-60
2023/09/14 07:21:54;;;;;;;0.38;0.20;;;;;;;34.25;nan;100120.31;7400258;19;20010;-60
2023/09/14 07:24:21;;;;;;;2.00;0.40;;;;;;;33.54;nan;100120.44;7397492;19;20015;-60
2023/09/14 07:26:48;;;;;;;1.88;0.98;;;;;;;34.69;nan;100121.31;7396133;19;20010;-60
2023/09/14 07:29:15;;;;;;;0.40;0.13;;;;;;;33.83;nan;100126.47;7398639;19;20340;-59
2023/09/14 07:31:41;;;;;;;1.13;0.32;;;;;;;35.16;nan;100122.47;7398264;19;20007;-60
2023/09/14 07:34:07;;;;;;;7.15;0.63;;;;;;;35.52;nan;100121.50;7398725;19;20074;-60
2023/09/14 07:36:34;;;;;;;1.88;0.38;;;;;;;35.21;nan;100121.31;7400873;19;20014;-60
2023/09/14 07:39:00;;;;;;;0.40;0.30;;;;;;;35.79;nan;100118.56;7400446;19;20030;-60
2023/09/14 07:41:26;;;;;;;0.68;0.43;;;;;;;36.50;nan;100122.09;7395945;19;20473;-60
2023/09/14 07:43:52;;;;;;;0.98;0.68;;;;;;;36.37;nan;100119.97;7398298;19;20007;-60
2023/09/14 07:46:19;;;;;;;0.40;0.30;;;;;;;34.64;nan;100131.16;7395521;19;20491;-60
2023/09/14 07:48:45;;;;;;;0.65;0.30;;;;;;;35.54;nan;100124.50;7397075;19;20010;-60
2023/09/14 07:51:11;;;;;;;0.10;0.08;;;;;;;35.70;nan;100134.03;7394050;19;20018;-60
2023/09/14 07:53:37;;;;;;;0.38;0.10;;;;;;;35.36;nan;100135.13;7394433;19;20078;-61
2023/09/14 07:56:03;;;;;;;0.10;0.00;;;;;;;34.80;nan;100134.97;7395341;19;20394;-60
2023/09/14 07:58:30;;;;;;;3.35;0.30;;;;;;;34.51;nan;100138.41;7397879;19;20773;-61
2023/09/14 08:00:56;;;;;;;0.13;0.10;;;;;;;34.34;nan;100135.97;7395693;19;20011;-60
2023/09/14 08:03:22;;;;;;;2.30;0.40;;;;;;;34.53;nan;100135.63;7397603;19;20386;-60
2023/09/14 08:05:51;;;;;;;5.20;0.35;;;;;;;33.51;nan;100141.91;7395855;19;20011;-60
2023/09/14 08:08:17;;;;;;;0.47;0.35;;;;;;;33.57;nan;100136.47;7395097;19;20011;-61
2023/09/14 08:10:53;;;;;;;0.77;0.15;;;;;;;33.29;nan;100137.63;7399127;19;20066;-60
2023/09/14 08:13:20;;;;;;;1.33;0.25;;;;;;;33.69;nan;100142.25;7398863;19;20003;-61
2023/09/14 08:15:46;;;;;;;2.53;0.10;;;;;;;33.74;nan;100138.97;7397445;19;20013;-61
2023/09/14 08:18:12;;;;;;;0.20;0.15;;;;;;;33.83;nan;100143.81;7398760;19;20099;-61
2023/09/14 08:20:44;;;;;;;0.15;0.13;;;;;;;33.13;nan;100146.06;7398654;19;20017;-60
2023/09/14 08:23:12;;;;;;;0.22;0.13;;;;;;;33.51;nan;100141.91;7398070;19;20520;-62
2023/09/14 08:25:46;;;;;;;1.20;0.90;;;;;;;34.60;nan;100142.50;7399520;19;20014;-62
2023/09/14 08:28:17;;;;;;;0.35;0.10;;;;;;;34.57;nan;100149.56;7398946;19;20003;-61
2023/09/14 08:30:44;;;;;;;0.90;0.32;;;;;;;34.72;nan;100148.97;7398780;19;20102;-62
2023/09/14 08:33:11;;;;;;;0.55;0.17;;;;;;;34.53;nan;100155.13;7394558;19;20021;-62
2023/09/14 08:35:37;;;;;;;0.73;0.40;;;;;;;35.51;nan;100151.88;7391326;19;20007;-62
2023/09/14 08:38:05;;;;;;;3.45;0.60;;;;;;;35.57;nan;100151.44;7394809;19;20006;-62
2023/09/14 08:40:32;;;;;;;0.10;0.10;;;;;;;35.88;nan;100150.84;7393032;19;20014;-62
2023/09/14 08:43:00;;;;;;;0.95;0.43;;;;;;;35.99;nan;100161.59;7394387;19;20014;-61
2023/09/14 08:45:30;;;;;;;0.82;0.20;;;;;;;36.99;nan;100163.63;7395033;19;20018;-62
2023/09/14 08:48:02;;;;;;;0.47;0.30;;;;;;;36.66;nan;100160.59;7395326;19;20015;-61
2023/09/14 08:50:31;;;;;;;2.83;0.70;;;;;;;36.84;nan;100158.53;7395094;19;20787;-62
2023/09/14 08:52:58;;;;;;;1.10;0.30;;;;;;;36.60;nan;100169.03;7395289;19;20014;-63
2023/09/14 08:55:28;;;;;;;0.47;0.47;;;;;;;35.48;nan;100173.44;7391297;19;20339;-63
2023/09/14 08:57:56;;;;;;;0.10;0.10;;;;;;;35.54;nan;100179.56;7395205;19;20018;-61
2023/09/14 09:00:26;;;;;;;0.45;0.40;;;;;;;36.31;nan;100174.81;7397068;19;20030;-62
2023/09/14 09:02:54;;;;;;;1.47;0.47;;;;;;;36.25;nan;100180.31;7398444;19;20009;-62
2023/09/14 09:05:21;;;;;;;1.80;0.77;;;;;;;37.20;nan;100171.13;7398653;19;20267;-62
2023/09/14 09:07:48;;;;;;;10.55;0.77;;;;;;;38.20;nan;100174.84;7397194;19;20015;-62
2023/09/14 09:10:23;;;;;;;0.30;0.28;;;;;;;38.00;nan;100179.03;7397292;19;20019;-62
2023/09/14 09:12:51;;;;;;;1.35;0.57;;;;;;;37.85;nan;100180.63;7398425;19;20018;-62
2023/09/14 09:15:18;;;;;;;0.52;0.38;;;;;;;37.52;nan;100177.66;7395498;19;20448;-62
2023/09/14 09:17:44;;;;;;;0.10;0.00;;;;;;;37.36;nan;100188.59;7394080;19;20014;-62
2023/09/14 09:20:16;;;;;;;0.10;0.10;;;;;;;37.20;nan;100194.38;7393708;19;20033;-62
2023/09/14 09:22:45;;;;;;;0.28;0.28;;;;;;;37.18;nan;100194.28;7393829;19;20494;-62
2023/09/14 09:25:13;;;;;;;1.33;0.10;;;;;;;37.55;nan;100188.75;7392099;19;20035;-62
2023/09/14 09:27:39;;;;;;;0.10;0.10;;;;;;;37.18;nan;100186.31;7393661;19;20006;-62
2023/09/14 09:30:08;;;;;;;0.17;0.17;;;;;;;36.93;nan;100186.59;7392425;19;20014;-62
2023/09/14 09:32:38;;;;;;;0.10;0.00;;;;;;;36.64;nan;100188.78;7393448;19;20021;-61
2023/09/14 09:35:16;;;;;;;1.05;0.32;;;;;;;36.42;nan;100191.31;7389093;19;20073;-62
2023/09/14 09:37:43;;;;;;;0.45;0.10;;;;;;;37.05;nan;100190.06;7391393;19;20019;-62
2023/09/14 09:40:26;;;;;;;0.40;0.00;;;;;;;36.50;nan;100188.84;7391989;19;20023;-62
2023/09/14 09:42:52;;;;;;;0.38;0.30;;;;;;;36.81;nan;100194.72;7391263;19;20039;-62
2023/09/14 09:45:23;;;;;;;1.45;0.13;;;;;;;36.73;nan;100185.63;7393741;19;20014;-62
2023/09/14 09:47:53;;;;;;;0.57;0.20;;;;;;;36.78;nan;100187.28;7393498;19;20091;-62
2023/09/14 09:50:22;;;;;;;0.40;0.30;;;;;;;37.07;nan;100190.16;7390490;19;20350;-62
2023/09/14 09:52:49;;;;;;;0.05;0.00;;;;;;;38.06;nan;100185.13;7393169;19;20015;-62
2023/09/14 09:55:23;;;;;;;0.40;0.30;;;;;;;37.92;nan;100185.28;7398906;19;20007;-62
2023/09/14 09:57:55;;;;;;;0.40;0.10;;;;;;;37.67;nan;100189.25;7396846;19;20020;-62
2023/09/14 10:00:39;;;;;;;0.93;0.32;;;;;;;37.71;nan;100188.69;7402790;19;20037;-62
2023/09/14 10:03:05;;;;;;;0.13;0.10;;;;;;;37.10;nan;100191.72;7398957;19;20014;-62
2023/09/14 10:05:33;;;;;;;1.17;0.38;;;;;;;37.22;nan;100189.41;7398407;19;20024;-62
2023/09/14 10:08:00;;;;;;;1.13;0.43;;;;;;;37.49;nan;100190.63;7399083;19;20022;-62
2023/09/14 10:10:32;;;;;;;0.32;0.10;;;;;;;37.78;nan;100187.53;7400335;19;20010;-62
2023/09/14 10:12:59;;;;;;;1.95;0.20;;;;;;;38.04;nan;100190.84;7398532;19;20011;-62
2023/09/14 10:15:27;;;;;;;1.80;0.28;;;;;;;37.28;nan;100188.16;7397030;19;20011;-62
2023/09/14 10:17:55;;;;;;;2.58;0.70;;;;;;;36.55;nan;100184.72;7396693;19;20018;-61
2023/09/14 10:20:22;;;;;;;0.68;0.40;;;;;;;36.15;nan;100177.66;7400924;19;20014;-61
2023/09/14 10:22:50;;;;;;;0.40;0.22;;;;;;;36.74;nan;100166.78;7400354;19;20006;-62
2023/09/14 10:25:17;;;;;;;2.78;0.40;;;;;;;35.71;nan;100170.31;7399297;19;20368;-62
2023/09/14 10:27:44;;;;;;;0.57;0.10;;;;;;;35.29;nan;100176.75;7397670;19;20042;-61
2023/09/14 10:30:18;;;;;;;0.93;0.30;;;;;;;36.44;nan;100162.44;7400005;19;20085;-62
2023/09/14 10:32:48;;;;;;;0.20;0.17;;;;;;;36.19;nan;100160.44;7396413;19;20002;-61
2023/09/14 10:35:16;;;;;;;0.70;0.20;;;;;;;36.53;nan;100167.22;7396298;19;20078;-58
2023/09/14 10:37:45;;;;;;;0.20;0.10;;;;;;;36.72;nan;100157.97;7397053;19;20011;-57
2023/09/14 10:40:13;;;;;;;0.30;0.30;;;;;;;36.42;nan;100165.19;7398821;19;20014;-57
2023/09/14 10:42:40;;;;;;;0.57;0.30;;;;;;;37.30;nan;100162.84;7400809;19;20014;-56
2023/09/14 10:45:08;;;;;;;2.38;0.30;;;;;;;38.40;nan;100158.22;7399769;19;20018;-56
2023/09/14 10:47:38;;;;;;;2.65;0.30;;;;;;;37.95;nan;100160.66;7400127;19;20015;-56
2023/09/14 10:50:06;;;;;;;0.38;0.35;;;;;;;36.95;nan;100165.63;7398941;19;20487;-57
2023/09/14 10:52:33;;;;;;;0.10;0.10;;;;;;;38.23;nan;100161.09;7396032;19;20351;-57
2023/09/14 10:55:00;;;;;;;0.68;0.40;;;;;;;37.60;nan;100166.41;7396819;19;20014;-56
2023/09/14 10:57:29;;;;;;;0.32;0.30;;;;;;;36.25;nan;100169.47;7400559;19;20023;-56
2023/09/14 11:00:01;;;;;;;0.10;0.10;;;;;;;36.43;nan;100160.91;7399068;19;20028;-56
2023/09/14 11:02:39;;;;;;;1.55;0.57;;;;;;;35.67;nan;100170.09;7395500;19;20466;-58
2023/09/14 11:05:12;;;;;;;0.70;0.10;;;;;;;35.38;nan;100172.91;7397072;19;20365;-57
2023/09/14 11:07:49;;;;;;;0.20;0.20;;;;;;;36.46;nan;100165.41;7397909;19;20016;-56
2023/09/14 11:10:18;;;;;;;0.10;0.10;;;;;;;36.46;nan;100160.38;7399141;19;20015;-57
2023/09/14 11:12:44;;;;;;;0.10;0.00;;;;;;;36.42;nan;100171.00;7391792;19;20040;-58
2023/09/14 11:15:22;;;;;;;0.35;0.10;;;;;;;36.57;nan;100170.31;7392841;19;20022;-57
2023/09/14 11:17:53;;;;;;;0.20;0.20;;;;;;;35.47;nan;100174.06;7393418;19;20055;-58
2023/09/14 11:20:19;;;;;;;0.10;0.00;;;;;;;35.80;nan;100169.34;7397332;19;20082;-57
2023/09/14 11:22:49;;;;;;;0.65;0.20;;;;;;;37.38;nan;100172.00;7394233;19;20014;-58
2023/09/14 11:25:26;;;;;;;;;;;;;;;37.01;nan;100174.59;7399843;19;20050;-56
2023/09/14 11:27:52;;;;;;;1.02;0.20;;;;;;;37.45;nan;100173.00;7396714;19;19926;-57
2023/09/14 11:30:24;;;;;;;0.13;0.10;;;;;;;37.88;nan;100173.47;7398600;19;20021;-57
2023/09/14 11:32:52;;;;;;;0.75;0.00;;;;;;;39.03;nan;100172.38;7398341;19;20074;-58
2023/09/14 11:35:32;;;;;;;0.32;0.10;;;;;;;39.76;nan;100161.25;7395335;19;20424;-56
2023/09/14 11:38:04;;;;;;;0.43;0.10;;;;;;;40.11;nan;100158.84;7393353;19;20019;-57
2023/09/14 11:40:33;;;;;;;0.10;0.10;;;;;;;40.56;nan;100158.16;7394501;19;20022;-57
2023/09/14 11:43:10;;;;;;;0.43;0.10;;;;;;;40.57;nan;100168.38;7390987;19;20360;-58
2023/09/14 11:45:41;;;;;;;0.17;0.10;;;;;;;40.63;nan;100156.16;7395342;19;20014;-57